Time;durP1;ratioP1;P1;durP2;ratioP2;P2;SDS_P1;SDS_P2;PMS_P1;PMS_P2;Temp;Humidity;BMP_temperature;BMP_pressure;BME280_temperature;BME280_humidity;BME280_pressure;Samples;Min_cycle;Max_cycle;Signal;HPM_P1;HPM_P2
2022/10/20 00:00:30;;;;;;;10.13;6.35;;;;;;;;;;631098;23;1137;-66
2022/10/20 00:01:38;;;;;;;9.35;6.30;;;;;;;;;;627265;23;1209;-67
2022/10/20 00:02:46;;;;;;;10.38;6.05;;;;;;;;;;627648;23;1331;-67
2022/10/20 00:03:54;;;;;;;9.60;6.47;;;;;;;;;;630431;23;1393;-67
2022/10/20 00:05:02;;;;;;;8.98;6.40;;;;;;;;;;631081;23;832;-67
2022/10/20 00:06:17;;;;;;;8.98;6.13;;;;;;;;;;630761;23;1413;-67
2022/10/20 00:07:25;;;;;;;12.10;6.50;;;;;;;;;;627729;23;1406;-66
2022/10/20 00:08:33;;;;;;;9.05;6.40;;;;;;;;;;628198;23;1458;-67
2022/10/20 00:09:41;;;;;;;9.32;6.50;;;;;;;;;;627828;23;1345;-67
2022/10/20 00:10:55;;;;;;;12.13;6.30;;;;;;;;;;627798;23;1307;-66
2022/10/20 00:12:04;;;;;;;8.23;6.22;;;;;;;;;;631187;23;1176;-66
2022/10/20 00:13:12;;;;;;;13.27;6.68;;;;;;;;;;630299;23;1236;-67
2022/10/20 00:14:20;;;;;;;8.80;6.40;;;;;;;;;;628039;23;1339;-66
2022/10/20 00:15:28;;;;;;;11.05;6.60;;;;;;;;;;631131;23;844;-66
2022/10/20 00:16:42;;;;;;;10.13;6.70;;;;;;;;;;630700;23;1354;-66
2022/10/20 00:17:50;;;;;;;12.98;6.78;;;;;;;;;;631333;23;978;-67
2022/10/20 00:18:58;;;;;;;10.68;6.60;;;;;;;;;;630600;23;1295;-66
2022/10/20 00:20:06;;;;;;;10.45;6.85;;;;;;;;;;631056;23;1252;-66
2022/10/20 00:21:15;;;;;;;10.40;6.75;;;;;;;;;;630920;23;1022;-66
2022/10/20 00:22:23;;;;;;;9.05;6.85;;;;;;;;;;627981;23;1431;-66
2022/10/20 00:23:31;;;;;;;8.38;6.40;;;;;;;;;;631222;23;898;-66
2022/10/20 00:24:39;;;;;;;10.02;6.40;;;;;;;;;;630235;23;1968;-67
2022/10/20 00:25:47;;;;;;;9.90;6.47;;;;;;;;;;625074;23;1359;-66
2022/10/20 00:26:56;;;;;;;10.55;6.68;;;;;;;;;;628274;23;942;-67
2022/10/20 00:28:05;;;;;;;9.68;6.13;;;;;;;;;;631335;23;1176;-67
2022/10/20 00:29:12;;;;;;;12.93;6.70;;;;;;;;;;631474;23;1084;-66
2022/10/20 00:30:21;;;;;;;7.78;6.03;;;;;;;;;;630766;23;1940;-67
2022/10/20 00:31:30;;;;;;;10.35;6.68;;;;;;;;;;631306;23;1501;-66
2022/10/20 00:32:38;;;;;;;8.88;6.20;;;;;;;;;;630254;23;1275;-66
2022/10/20 00:33:46;;;;;;;10.50;6.10;;;;;;;;;;631058;23;983;-66
2022/10/20 00:34:54;;;;;;;9.18;6.15;;;;;;;;;;631125;23;1374;-66
2022/10/20 00:36:03;;;;;;;8.90;6.20;;;;;;;;;;627579;23;1402;-66
2022/10/20 00:37:12;;;;;;;9.10;6.20;;;;;;;;;;631182;23;1250;-66
2022/10/20 00:38:20;;;;;;;9.80;6.30;;;;;;;;;;629423;23;1110;-66
2022/10/20 00:39:27;;;;;;;11.38;6.45;;;;;;;;;;631161;23;808;-66
2022/10/20 00:40:35;;;;;;;9.90;6.13;;;;;;;;;;630420;23;1386;-66
2022/10/20 00:41:43;;;;;;;8.70;6.15;;;;;;;;;;628302;23;1224;-67
2022/10/20 00:42:53;;;;;;;11.83;6.00;;;;;;;;;;628117;23;1590;-66
2022/10/20 00:44:22;;;;;;;8.88;5.95;;;;;;;;;;628002;23;1264;-66
2022/10/20 00:45:41;;;;;;;11.13;6.50;;;;;;;;;;627876;23;1379;-66
2022/10/20 00:46:49;;;;;;;9.57;6.03;;;;;;;;;;630519;23;931;-67
2022/10/20 00:48:05;;;;;;;10.85;6.00;;;;;;;;;;634269;23;1303;-66
2022/10/20 00:49:20;;;;;;;10.60;6.28;;;;;;;;;;631332;23;1046;-66
2022/10/20 00:50:30;;;;;;;10.93;6.25;;;;;;;;;;627482;23;1275;-67
2022/10/20 00:51:41;;;;;;;9.68;6.25;;;;;;;;;;627978;23;1357;-66
2022/10/20 00:52:49;;;;;;;8.77;6.15;;;;;;;;;;627412;23;986;-67
2022/10/20 00:54:07;;;;;;;9.70;6.10;;;;;;;;;;627582;23;1375;-66
2022/10/20 00:55:24;;;;;;;10.38;6.20;;;;;;;;;;628011;23;1271;-67
2022/10/20 00:56:34;;;;;;;9.57;6.10;;;;;;;;;;631520;23;1343;-67
2022/10/20 00:57:45;;;;;;;9.73;5.90;;;;;;;;;;630195;23;1836;-66
2022/10/20 00:58:54;;;;;;;10.75;6.57;;;;;;;;;;627857;23;1212;-66
2022/10/20 01:00:04;;;;;;;9.60;6.25;;;;;;;;;;623074;23;984;-66
2022/10/20 01:01:13;;;;;;;8.60;6.50;;;;;;;;;;628162;23;1636;-66
2022/10/20 01:02:21;;;;;;;10.18;6.25;;;;;;;;;;630781;23;826;-66
2022/10/20 01:03:44;;;;;;;10.63;6.43;;;;;;;;;;631224;23;883;-67
2022/10/20 01:04:52;;;;;;;8.25;5.70;;;;;;;;;;626900;23;1374;-66
2022/10/20 01:06:00;;;;;;;10.07;6.22;;;;;;;;;;627750;23;878;-67
2022/10/20 01:07:10;;;;;;;10.73;6.30;;;;;;;;;;631116;23;804;-66
2022/10/20 01:08:17;;;;;;;9.15;6.22;;;;;;;;;;630985;23;1260;-66
2022/10/20 01:09:26;;;;;;;9.23;6.13;;;;;;;;;;627342;23;1917;-66
2022/10/20 01:10:39;;;;;;;10.45;6.70;;;;;;;;;;630706;23;864;-66
2022/10/20 01:12:29;;;;;;;8.32;6.40;;;;;;;;;;631072;23;1261;-66
2022/10/20 01:13:58;;;;;;;7.57;5.82;;;;;;;;;;628678;23;1383;-66
2022/10/20 01:15:19;;;;;;;9.73;6.32;;;;;;;;;;628233;23;952;-66
2022/10/20 01:16:41;;;;;;;8.82;6.18;;;;;;;;;;631316;23;1058;-66
2022/10/20 01:18:16;;;;;;;9.48;5.93;;;;;;;;;;630894;23;1491;-66
2022/10/20 01:19:48;;;;;;;11.80;6.20;;;;;;;;;;627478;23;1327;-66
2022/10/20 01:21:32;;;;;;;11.20;6.15;;;;;;;;;;627429;23;1351;-66
2022/10/20 01:22:54;;;;;;;9.90;6.10;;;;;;;;;;630256;23;869;-66
2022/10/20 01:24:29;;;;;;;9.05;6.10;;;;;;;;;;631671;23;989;-66
2022/10/20 01:26:10;;;;;;;10.27;6.13;;;;;;;;;;631035;23;1956;-67
2022/10/20 01:27:22;;;;;;;9.55;6.15;;;;;;;;;;628080;23;1296;-66
2022/10/20 01:28:50;;;;;;;12.52;6.00;;;;;;;;;;626943;23;1257;-67
2022/10/20 01:30:17;;;;;;;8.95;6.07;;;;;;;;;;626966;23;1427;-66
2022/10/20 01:31:47;;;;;;;9.73;5.70;;;;;;;;;;630403;23;1378;-67
2022/10/20 01:33:12;;;;;;;9.10;6.20;;;;;;;;;;630466;23;1097;-66
2022/10/20 01:34:29;;;;;;;9.45;5.78;;;;;;;;;;628188;23;1394;-66
2022/10/20 01:35:46;;;;;;;8.90;5.70;;;;;;;;;;627805;23;1002;-66
2022/10/20 01:37:07;;;;;;;8.27;5.63;;;;;;;;;;627641;23;1300;-67
2022/10/20 01:38:37;;;;;;;7.95;6.00;;;;;;;;;;627711;23;1352;-67
2022/10/20 01:40:12;;;;;;;8.60;5.50;;;;;;;;;;627901;23;1229;-67
2022/10/20 01:41:26;;;;;;;10.55;5.30;;;;;;;;;;627668;23;1306;-66
2022/10/20 01:42:38;;;;;;;9.05;5.55;;;;;;;;;;631174;23;923;-66
2022/10/20 01:43:48;;;;;;;10.68;5.75;;;;;;;;;;630400;23;1354;-67
2022/10/20 01:45:00;;;;;;;10.98;5.50;;;;;;;;;;630774;23;965;-67
2022/10/20 01:46:10;;;;;;;9.50;5.90;;;;;;;;;;631073;23;1363;-66
2022/10/20 01:47:19;;;;;;;11.48;5.70;;;;;;;;;;628007;23;1404;-67
2022/10/20 01:48:33;;;;;;;10.68;5.88;;;;;;;;;;630845;23;958;-66
2022/10/20 01:49:42;;;;;;;8.18;5.20;;;;;;;;;;631166;23;1493;-66
2022/10/20 01:50:50;;;;;;;8.70;5.20;;;;;;;;;;628678;23;1363;-67
2022/10/20 01:52:00;;;;;;;8.68;5.60;;;;;;;;;;631240;23;840;-67
2022/10/20 01:53:09;;;;;;;12.93;5.75;;;;;;;;;;631538;23;901;-66
2022/10/20 01:54:21;;;;;;;9.88;5.70;;;;;;;;;;631322;23;1374;-67
2022/10/20 01:55:29;;;;;;;7.80;5.30;;;;;;;;;;628124;23;1987;-66
2022/10/20 01:56:55;;;;;;;7.00;5.28;;;;;;;;;;630475;23;1343;-66
2022/10/20 01:58:37;;;;;;;9.55;5.43;;;;;;;;;;630661;23;1408;-66
2022/10/20 02:00:17;;;;;;;10.20;5.32;;;;;;;;;;631001;23;1366;-66
2022/10/20 02:01:33;;;;;;;10.02;5.20;;;;;;;;;;624295;23;823;-66
2022/10/20 02:02:52;;;;;;;8.40;5.35;;;;;;;;;;633022;23;1481;-66
2022/10/20 02:04:01;;;;;;;7.22;5.10;;;;;;;;;;630646;23;1326;-66
2022/10/20 02:05:19;;;;;;;7.47;5.53;;;;;;;;;;627336;23;913;-65
2022/10/20 02:06:46;;;;;;;8.45;5.07;;;;;;;;;;631402;23;931;-66
2022/10/20 02:08:05;;;;;;;6.75;5.38;;;;;;;;;;631257;23;1273;-67
2022/10/20 02:09:45;;;;;;;8.88;5.57;;;;;;;;;;627385;23;1388;-66
2022/10/20 02:11:09;;;;;;;8.98;5.47;;;;;;;;;;631060;23;1147;-66
2022/10/20 02:12:23;;;;;;;8.50;5.53;;;;;;;;;;630804;23;1414;-66
2022/10/20 02:13:34;;;;;;;8.85;5.28;;;;;;;;;;627556;23;1048;-66
2022/10/20 02:14:44;;;;;;;11.00;5.40;;;;;;;;;;626848;23;1224;-67
2022/10/20 02:15:54;;;;;;;8.20;5.03;;;;;;;;;;628037;23;1253;-67
2022/10/20 02:17:07;;;;;;;8.90;5.35;;;;;;;;;;627780;23;1228;-67
2022/10/20 02:18:17;;;;;;;10.18;5.78;;;;;;;;;;630651;23;879;-66
2022/10/20 02:19:30;;;;;;;9.18;5.38;;;;;;;;;;631449;23;828;-67
2022/10/20 02:20:41;;;;;;;10.73;5.55;;;;;;;;;;630031;23;1153;-67
2022/10/20 02:21:51;;;;;;;7.57;5.38;;;;;;;;;;627929;23;1339;-67
2022/10/20 02:23:03;;;;;;;10.50;5.60;;;;;;;;;;631154;23;1445;-66
2022/10/20 02:24:12;;;;;;;8.23;5.28;;;;;;;;;;630470;23;1313;-67
2022/10/20 02:25:24;;;;;;;9.07;5.30;;;;;;;;;;630999;23;870;-66
2022/10/20 02:26:33;;;;;;;7.93;5.28;;;;;;;;;;630770;23;1917;-66
2022/10/20 02:27:45;;;;;;;6.95;5.32;;;;;;;;;;630707;23;1398;-67
2022/10/20 02:28:59;;;;;;;9.95;5.20;;;;;;;;;;626967;23;1138;-67
2022/10/20 02:30:10;;;;;;;9.50;5.30;;;;;;;;;;630200;23;1359;-67
2022/10/20 02:31:18;;;;;;;8.95;5.45;;;;;;;;;;630205;23;2081;-67
2022/10/20 02:32:26;;;;;;;8.02;4.88;;;;;;;;;;627738;23;1383;-66
2022/10/20 02:33:36;;;;;;;8.90;5.25;;;;;;;;;;627804;23;1363;-66
2022/10/20 02:34:46;;;;;;;9.48;5.20;;;;;;;;;;627897;23;1427;-65
2022/10/20 02:35:57;;;;;;;6.80;5.00;;;;;;;;;;627397;23;1454;-66
2022/10/20 02:37:08;;;;;;;8.43;4.90;;;;;;;;;;627586;23;1387;-66
2022/10/20 02:38:16;;;;;;;7.95;5.13;;;;;;;;;;630814;23;1277;-66
2022/10/20 02:39:24;;;;;;;8.40;5.20;;;;;;;;;;626977;23;1468;-66
2022/10/20 02:40:32;;;;;;;9.50;5.07;;;;;;;;;;631144;23;812;-66
2022/10/20 02:41:40;;;;;;;8.35;5.20;;;;;;;;;;630497;23;1384;-66
2022/10/20 02:42:48;;;;;;;9.02;5.10;;;;;;;;;;627396;23;1388;-66
2022/10/20 02:43:56;;;;;;;7.78;4.97;;;;;;;;;;627449;23;1247;-65
2022/10/20 02:45:04;;;;;;;8.77;5.57;;;;;;;;;;628286;23;1267;-66
2022/10/20 02:46:12;;;;;;;7.63;5.10;;;;;;;;;;627652;23;1267;-67
2022/10/20 02:47:21;;;;;;;7.38;5.13;;;;;;;;;;627691;23;1386;-66
2022/10/20 02:48:29;;;;;;;7.03;5.40;;;;;;;;;;627203;23;1247;-67
2022/10/20 02:49:36;;;;;;;7.75;5.07;;;;;;;;;;631011;23;1255;-66
2022/10/20 02:50:44;;;;;;;6.82;5.20;;;;;;;;;;630542;23;1379;-66
2022/10/20 02:51:52;;;;;;;9.75;5.30;;;;;;;;;;630467;23;1027;-66
2022/10/20 02:53:00;;;;;;;7.35;5.10;;;;;;;;;;627734;23;1434;-66
2022/10/20 02:54:08;;;;;;;7.47;5.10;;;;;;;;;;627735;23;988;-66
2022/10/20 02:55:15;;;;;;;10.10;5.55;;;;;;;;;;628268;23;1028;-66
2022/10/20 02:56:23;;;;;;;8.70;5.25;;;;;;;;;;627195;23;1348;-66
2022/10/20 02:57:31;;;;;;;7.55;4.93;;;;;;;;;;631336;23;1551;-66
2022/10/20 02:58:39;;;;;;;6.65;5.20;;;;;;;;;;630177;23;967;-67
2022/10/20 02:59:47;;;;;;;7.68;5.20;;;;;;;;;;630718;23;1343;-67
2022/10/20 03:00:55;;;;;;;9.80;5.20;;;;;;;;;;629767;23;887;-66
2022/10/20 03:02:03;;;;;;;11.88;5.40;;;;;;;;;;631140;23;978;-66
2022/10/20 03:03:11;;;;;;;8.38;5.30;;;;;;;;;;627754;23;1215;-66
2022/10/20 03:04:19;;;;;;;7.00;5.22;;;;;;;;;;630347;23;1450;-66
2022/10/20 03:05:28;;;;;;;8.55;5.20;;;;;;;;;;627827;23;1300;-66
2022/10/20 03:06:36;;;;;;;8.27;5.00;;;;;;;;;;630541;23;1370;-66
2022/10/20 03:07:43;;;;;;;6.93;5.10;;;;;;;;;;630799;23;1236;-66
2022/10/20 03:08:51;;;;;;;11.10;5.53;;;;;;;;;;627458;23;1354;-66
2022/10/20 03:09:59;;;;;;;7.88;5.20;;;;;;;;;;627885;23;1225;-66
2022/10/20 03:11:07;;;;;;;9.40;5.30;;;;;;;;;;627979;23;1414;-66
2022/10/20 03:12:15;;;;;;;10.07;5.20;;;;;;;;;;630607;23;855;-67
2022/10/20 03:13:23;;;;;;;8.18;5.38;;;;;;;;;;630379;23;1387;-66
2022/10/20 03:14:31;;;;;;;10.05;5.45;;;;;;;;;;628230;23;1260;-67
2022/10/20 03:15:39;;;;;;;8.25;5.20;;;;;;;;;;627895;23;1406;-67
2022/10/20 03:16:46;;;;;;;6.85;5.30;;;;;;;;;;624163;23;1323;-66
2022/10/20 03:17:54;;;;;;;5.93;4.88;;;;;;;;;;621338;23;1441;-67
2022/10/20 03:19:02;;;;;;;10.77;5.13;;;;;;;;;;625027;23;1250;-66
2022/10/20 03:20:10;;;;;;;7.70;5.32;;;;;;;;;;630917;23;1252;-67
2022/10/20 03:21:18;;;;;;;7.00;4.78;;;;;;;;;;630181;23;885;-66
2022/10/20 03:22:26;;;;;;;8.05;5.00;;;;;;;;;;628134;23;1356;-66
2022/10/20 03:23:34;;;;;;;7.20;5.15;;;;;;;;;;627634;23;1376;-67
2022/10/20 03:24:42;;;;;;;7.72;4.82;;;;;;;;;;630723;23;1569;-67
2022/10/20 03:25:49;;;;;;;8.32;4.78;;;;;;;;;;627160;23;1324;-66
2022/10/20 03:26:58;;;;;;;7.70;4.70;;;;;;;;;;628021;23;1284;-66
2022/10/20 03:28:06;;;;;;;6.50;4.55;;;;;;;;;;627303;23;1312;-66
2022/10/20 03:29:13;;;;;;;6.75;4.53;;;;;;;;;;627421;23;1327;-67
2022/10/20 03:30:21;;;;;;;8.13;4.57;;;;;;;;;;631033;23;1458;-66
2022/10/20 03:31:29;;;;;;;7.35;4.40;;;;;;;;;;630232;23;1035;-66
2022/10/20 03:32:37;;;;;;;7.60;4.70;;;;;;;;;;626923;23;2105;-66
2022/10/20 03:33:45;;;;;;;8.93;4.90;;;;;;;;;;627321;23;1449;-66
2022/10/20 03:34:53;;;;;;;9.90;4.80;;;;;;;;;;627802;23;808;-66
2022/10/20 03:36:01;;;;;;;7.60;4.35;;;;;;;;;;627369;23;1399;-66
2022/10/20 03:37:08;;;;;;;6.50;4.40;;;;;;;;;;627771;23;1483;-66
2022/10/20 03:38:16;;;;;;;6.88;4.50;;;;;;;;;;628165;23;1574;-66
2022/10/20 03:39:24;;;;;;;10.68;4.80;;;;;;;;;;628156;23;904;-66
2022/10/20 03:40:32;;;;;;;5.97;4.60;;;;;;;;;;627950;23;1212;-66
2022/10/20 03:41:40;;;;;;;7.70;4.40;;;;;;;;;;627411;23;1235;-66
2022/10/20 03:42:48;;;;;;;6.93;4.50;;;;;;;;;;627765;23;1284;-66
2022/10/20 03:43:55;;;;;;;6.70;4.60;;;;;;;;;;626419;23;1352;-66
2022/10/20 03:45:04;;;;;;;8.25;4.65;;;;;;;;;;631018;23;977;-66
2022/10/20 03:46:11;;;;;;;8.80;4.85;;;;;;;;;;630574;23;1330;-66
2022/10/20 03:47:19;;;;;;;9.43;4.78;;;;;;;;;;628286;23;1265;-66
2022/10/20 03:48:27;;;;;;;9.10;4.70;;;;;;;;;;628102;23;1315;-66
2022/10/20 03:49:35;;;;;;;7.65;4.80;;;;;;;;;;627924;23;1334;-66
2022/10/20 03:50:43;;;;;;;7.20;4.97;;;;;;;;;;627455;23;1493;-66
2022/10/20 03:51:52;;;;;;;8.27;5.00;;;;;;;;;;627365;23;1260;-66
2022/10/20 03:53:00;;;;;;;9.27;5.15;;;;;;;;;;631250;23;1528;-66
2022/10/20 03:54:07;;;;;;;6.95;5.07;;;;;;;;;;631113;23;1047;-66
2022/10/20 03:55:16;;;;;;;9.23;5.15;;;;;;;;;;630800;23;1216;-67
2022/10/20 03:56:23;;;;;;;8.25;4.90;;;;;;;;;;627065;23;1293;-66
2022/10/20 03:57:31;;;;;;;11.82;5.40;;;;;;;;;;628080;23;1431;-67
2022/10/20 03:58:39;;;;;;;7.60;4.90;;;;;;;;;;627094;23;1259;-66
2022/10/20 03:59:47;;;;;;;8.80;5.20;;;;;;;;;;627165;23;1475;-66
2022/10/20 04:00:56;;;;;;;10.05;5.20;;;;;;;;;;629624;23;855;-66
2022/10/20 04:02:07;;;;;;;9.13;5.03;;;;;;;;;;630863;23;1309;-66
2022/10/20 04:03:26;;;;;;;8.10;5.03;;;;;;;;;;628018;23;1597;-66
2022/10/20 04:04:34;;;;;;;8.35;4.90;;;;;;;;;;627876;23;919;-66
2022/10/20 04:05:42;;;;;;;8.10;5.35;;;;;;;;;;627273;23;1403;-66
2022/10/20 04:06:50;;;;;;;7.18;4.85;;;;;;;;;;624649;23;1273;-66
2022/10/20 04:07:57;;;;;;;8.23;5.00;;;;;;;;;;624814;23;1221;-66
2022/10/20 04:09:05;;;;;;;8.00;4.95;;;;;;;;;;631398;23;1351;-66
2022/10/20 04:10:14;;;;;;;7.05;5.10;;;;;;;;;;630765;23;1220;-66
2022/10/20 04:11:22;;;;;;;7.25;4.60;;;;;;;;;;627406;23;1221;-66
2022/10/20 04:12:30;;;;;;;8.85;4.88;;;;;;;;;;630987;23;764;-66
2022/10/20 04:13:38;;;;;;;6.38;4.97;;;;;;;;;;627968;23;1257;-66
2022/10/20 04:14:46;;;;;;;7.68;4.90;;;;;;;;;;624897;23;868;-66
2022/10/20 04:15:55;;;;;;;8.13;5.28;;;;;;;;;;627809;23;1388;-66
2022/10/20 04:17:03;;;;;;;8.73;5.10;;;;;;;;;;630496;23;967;-66
2022/10/20 04:18:11;;;;;;;7.38;4.82;;;;;;;;;;630797;23;1010;-66
2022/10/20 04:19:19;;;;;;;7.35;4.82;;;;;;;;;;625126;23;1264;-66
2022/10/20 04:20:27;;;;;;;9.95;5.18;;;;;;;;;;626903;23;883;-66
2022/10/20 04:21:35;;;;;;;7.97;4.95;;;;;;;;;;633749;23;907;-66
2022/10/20 04:22:42;;;;;;;7.43;5.07;;;;;;;;;;630652;23;1017;-66
2022/10/20 04:23:50;;;;;;;8.23;4.70;;;;;;;;;;627467;23;1138;-66
2022/10/20 04:24:58;;;;;;;6.15;4.90;;;;;;;;;;627798;23;871;-67
2022/10/20 04:26:09;;;;;;;9.80;5.30;;;;;;;;;;627738;23;1173;-65
2022/10/20 04:27:17;;;;;;;7.22;5.05;;;;;;;;;;630591;23;1589;-66
2022/10/20 04:28:25;;;;;;;8.43;4.80;;;;;;;;;;634086;23;871;-66
2022/10/20 04:29:33;;;;;;;7.53;4.88;;;;;;;;;;630521;23;1236;-66
2022/10/20 04:30:41;;;;;;;7.88;4.95;;;;;;;;;;627492;23;1229;-67
2022/10/20 04:31:51;;;;;;;7.28;4.93;;;;;;;;;;630307;23;1264;-66
2022/10/20 04:32:59;;;;;;;7.40;4.68;;;;;;;;;;627951;23;1347;-66
2022/10/20 04:34:07;;;;;;;9.45;5.07;;;;;;;;;;627968;23;1295;-67
2022/10/20 04:35:15;;;;;;;7.43;5.00;;;;;;;;;;630825;23;1403;-66
2022/10/20 04:36:23;;;;;;;6.50;4.95;;;;;;;;;;634262;23;930;-66
2022/10/20 04:37:31;;;;;;;6.55;4.97;;;;;;;;;;630165;23;1509;-66
2022/10/20 04:38:39;;;;;;;7.18;4.60;;;;;;;;;;627842;23;1254;-67
2022/10/20 04:39:46;;;;;;;8.10;5.05;;;;;;;;;;627784;23;1374;-67
2022/10/20 04:40:55;;;;;;;8.23;4.82;;;;;;;;;;630208;23;1144;-66
2022/10/20 04:42:03;;;;;;;10.10;5.10;;;;;;;;;;630791;23;1256;-67
2022/10/20 04:43:11;;;;;;;6.70;4.85;;;;;;;;;;631073;23;883;-67
2022/10/20 04:44:19;;;;;;;7.97;4.95;;;;;;;;;;630178;23;1228;-66
2022/10/20 04:45:27;;;;;;;7.32;4.85;;;;;;;;;;625171;23;1095;-66
2022/10/20 04:46:35;;;;;;;7.40;4.63;;;;;;;;;;624522;23;954;-66
2022/10/20 04:47:45;;;;;;;8.57;5.00;;;;;;;;;;628067;23;1581;-66
2022/10/20 04:48:53;;;;;;;5.93;4.80;;;;;;;;;;626553;23;1910;-66
2022/10/20 04:50:00;;;;;;;7.80;4.65;;;;;;;;;;631017;23;1987;-67
2022/10/20 04:51:09;;;;;;;6.43;4.75;;;;;;;;;;627200;23;1216;-66
2022/10/20 04:52:19;;;;;;;8.98;4.78;;;;;;;;;;627147;23;1461;-66
2022/10/20 04:53:27;;;;;;;7.75;4.65;;;;;;;;;;630274;23;1738;-66
2022/10/20 04:54:35;;;;;;;7.05;4.57;;;;;;;;;;630868;23;908;-66
2022/10/20 04:55:43;;;;;;;8.27;4.97;;;;;;;;;;629869;23;1272;-64
2022/10/20 04:56:51;;;;;;;9.50;4.85;;;;;;;;;;631089;23;1362;-63
2022/10/20 04:57:58;;;;;;;8.05;5.10;;;;;;;;;;632740;23;1022;-64
2022/10/20 04:59:06;;;;;;;8.65;5.10;;;;;;;;;;631934;23;1006;-64
2022/10/20 05:00:14;;;;;;;8.40;4.68;;;;;;;;;;631618;23;771;-64
2022/10/20 05:01:24;;;;;;;8.00;4.75;;;;;;;;;;631390;23;970;-64
2022/10/20 05:02:32;;;;;;;8.23;4.80;;;;;;;;;;630804;23;1231;-64
2022/10/20 05:03:40;;;;;;;10.93;4.70;;;;;;;;;;631278;23;1073;-63
2022/10/20 05:04:48;;;;;;;8.05;5.13;;;;;;;;;;630939;23;1556;-63
2022/10/20 05:06:16;;;;;;;8.30;5.55;;;;;;;;;;630708;23;942;-64
2022/10/20 05:07:24;;;;;;;8.13;6.22;;;;;;;;;;629360;23;1230;-63
2022/10/20 05:08:32;;;;;;;10.90;6.50;;;;;;;;;;630499;23;1825;-64
2022/10/20 05:09:42;;;;;;;7.82;5.07;;;;;;;;;;631314;23;1358;-63
2022/10/20 05:10:50;;;;;;;8.40;5.50;;;;;;;;;;627318;23;1216;-63
2022/10/20 05:11:58;;;;;;;9.38;5.97;;;;;;;;;;631107;23;1358;-63
2022/10/20 05:13:06;;;;;;;9.20;8.30;;;;;;;;;;630351;23;1516;-63
2022/10/20 05:14:14;;;;;;;8.32;6.78;;;;;;;;;;628150;23;1371;-63
2022/10/20 05:15:21;;;;;;;12.70;6.15;;;;;;;;;;627829;23;933;-63
2022/10/20 05:16:29;;;;;;;10.20;6.40;;;;;;;;;;628236;23;2837;-64
2022/10/20 05:17:37;;;;;;;8.15;5.07;;;;;;;;;;627157;23;1259;-64
2022/10/20 05:18:46;;;;;;;11.02;6.88;;;;;;;;;;630531;23;1478;-64
2022/10/20 05:19:53;;;;;;;9.48;6.65;;;;;;;;;;634363;23;962;-63
2022/10/20 05:21:08;;;;;;;7.47;6.68;;;;;;;;;;631004;23;1315;-63
2022/10/20 05:22:17;;;;;;;7.90;6.07;;;;;;;;;;628364;23;1348;-63
2022/10/20 05:23:25;;;;;;;9.20;6.05;;;;;;;;;;627556;23;1237;-63
2022/10/20 05:24:33;;;;;;;9.10;6.15;;;;;;;;;;628208;23;1366;-63
2022/10/20 05:25:41;;;;;;;10.18;8.23;;;;;;;;;;627978;23;1327;-63
2022/10/20 05:26:49;;;;;;;9.82;8.18;;;;;;;;;;628564;23;1343;-63
2022/10/20 05:27:57;;;;;;;13.50;11.38;;;;;;;;;;628241;23;1491;-63
2022/10/20 05:29:06;;;;;;;10.98;8.68;;;;;;;;;;629879;23;1026;-64
2022/10/20 05:30:14;;;;;;;16.85;11.50;;;;;;;;;;631353;23;915;-63
2022/10/20 05:31:22;;;;;;;13.52;10.57;;;;;;;;;;630954;23;843;-63
2022/10/20 05:32:33;;;;;;;15.40;11.65;;;;;;;;;;630612;23;1382;-63
2022/10/20 05:33:45;;;;;;;17.55;12.15;;;;;;;;;;627554;23;1335;-64
2022/10/20 05:34:53;;;;;;;12.77;8.45;;;;;;;;;;627612;23;1414;-64
2022/10/20 05:36:10;;;;;;;18.48;13.15;;;;;;;;;;627579;23;1359;-63
2022/10/20 05:37:18;;;;;;;10.57;7.72;;;;;;;;;;625298;23;921;-63
2022/10/20 05:38:26;;;;;;;13.70;10.20;;;;;;;;;;624360;23;1281;-64
2022/10/20 05:39:34;;;;;;;16.05;10.50;;;;;;;;;;624519;23;1332;-63
2022/10/20 05:40:42;;;;;;;12.95;8.38;;;;;;;;;;625058;23;1236;-63
2022/10/20 05:41:58;;;;;;;11.00;6.72;;;;;;;;;;628371;23;1263;-64
2022/10/20 05:43:06;;;;;;;9.77;7.45;;;;;;;;;;631093;23;1221;-64
2022/10/20 05:44:14;;;;;;;10.70;9.60;;;;;;;;;;628220;23;979;-63
2022/10/20 05:45:22;;;;;;;8.77;7.72;;;;;;;;;;625422;23;1566;-63
2022/10/20 05:46:31;;;;;;;10.75;6.70;;;;;;;;;;626784;23;1229;-64
2022/10/20 05:47:39;;;;;;;7.90;6.50;;;;;;;;;;627907;23;1447;-63
2022/10/20 05:48:47;;;;;;;9.38;6.60;;;;;;;;;;630358;23;902;-64
2022/10/20 05:49:55;;;;;;;8.68;5.97;;;;;;;;;;633933;23;1279;-64
2022/10/20 05:51:07;;;;;;;8.10;6.30;;;;;;;;;;630480;23;1266;-63
2022/10/20 05:52:16;;;;;;;8.60;5.90;;;;;;;;;;627874;23;1239;-63
2022/10/20 05:53:26;;;;;;;8.40;5.70;;;;;;;;;;631449;23;902;-64
2022/10/20 05:54:34;;;;;;;10.38;6.13;;;;;;;;;;630571;23;1884;-64
2022/10/20 05:55:43;;;;;;;8.70;5.88;;;;;;;;;;627849;23;988;-63
2022/10/20 05:56:58;;;;;;;8.77;6.40;;;;;;;;;;630510;23;1312;-64
2022/10/20 05:58:05;;;;;;;10.75;6.10;;;;;;;;;;627095;23;1252;-64
2022/10/20 05:59:13;;;;;;;11.73;6.10;;;;;;;;;;627842;23;1229;-63
2022/10/20 06:00:28;;;;;;;8.93;6.07;;;;;;;;;;630826;23;1523;-63
2022/10/20 06:01:46;;;;;;;6.72;5.80;;;;;;;;;;627353;23;1340;-64
2022/10/20 06:02:54;;;;;;;10.40;5.70;;;;;;;;;;626952;23;1313;-64
2022/10/20 06:04:02;;;;;;;8.25;6.00;;;;;;;;;;630773;23;1425;-63
2022/10/20 06:05:11;;;;;;;7.93;5.70;;;;;;;;;;626151;23;878;-64
2022/10/20 06:06:20;;;;;;;8.15;5.75;;;;;;;;;;633295;23;1098;-64
2022/10/20 06:07:28;;;;;;;6.93;6.05;;;;;;;;;;629544;23;1205;-64
2022/10/20 06:08:36;;;;;;;8.85;6.05;;;;;;;;;;626372;23;1265;-64
2022/10/20 06:09:44;;;;;;;9.02;5.50;;;;;;;;;;629923;23;935;-64
2022/10/20 06:10:52;;;;;;;8.82;6.03;;;;;;;;;;630342;23;1260;-64
2022/10/20 06:12:00;;;;;;;8.18;5.60;;;;;;;;;;629807;23;851;-64
2022/10/20 06:13:09;;;;;;;7.63;5.50;;;;;;;;;;629572;23;1300;-64
2022/10/20 06:14:17;;;;;;;8.75;5.90;;;;;;;;;;626194;23;1378;-64
2022/10/20 06:15:25;;;;;;;7.65;6.32;;;;;;;;;;630737;23;1324;-63
2022/10/20 06:16:32;;;;;;;9.52;7.68;;;;;;;;;;633430;23;961;-64
2022/10/20 06:17:45;;;;;;;9.52;7.57;;;;;;;;;;629866;23;1450;-64
2022/10/20 06:18:53;;;;;;;8.40;7.47;;;;;;;;;;625704;23;903;-64
2022/10/20 06:20:02;;;;;;;8.70;6.50;;;;;;;;;;626739;23;1332;-64
2022/10/20 06:21:17;;;;;;;8.05;6.50;;;;;;;;;;629642;23;827;-64
2022/10/20 06:22:25;;;;;;;8.82;6.82;;;;;;;;;;629885;23;1133;-63
2022/10/20 06:23:33;;;;;;;9.85;6.68;;;;;;;;;;627285;23;899;-64
2022/10/20 06:24:41;;;;;;;9.15;7.93;;;;;;;;;;626687;23;1346;-64
2022/10/20 06:25:49;;;;;;;14.13;11.23;;;;;;;;;;626245;23;1265;-64
2022/10/20 06:26:58;;;;;;;10.60;7.78;;;;;;;;;;626819;23;1184;-63
2022/10/20 06:28:06;;;;;;;11.15;7.82;;;;;;;;;;626796;23;1296;-64
2022/10/20 06:29:15;;;;;;;9.50;6.55;;;;;;;;;;630299;23;883;-64
2022/10/20 06:30:23;;;;;;;9.10;6.10;;;;;;;;;;630484;23;1410;-63
2022/10/20 06:31:37;;;;;;;8.30;6.10;;;;;;;;;;627698;23;2080;-63
2022/10/20 06:32:46;;;;;;;12.45;7.80;;;;;;;;;;626190;23;1552;-63
2022/10/20 06:33:54;;;;;;;10.50;7.95;;;;;;;;;;630098;23;1078;-64
2022/10/20 06:35:05;;;;;;;13.52;8.77;;;;;;;;;;630368;23;1393;-64
2022/10/20 06:36:13;;;;;;;10.93;7.05;;;;;;;;;;627493;23;1312;-64
2022/10/20 06:37:21;;;;;;;9.95;6.10;;;;;;;;;;627728;23;1556;-63
2022/10/20 06:38:28;;;;;;;10.60;6.15;;;;;;;;;;627308;23;1291;-64
2022/10/20 06:39:36;;;;;;;10.90;6.57;;;;;;;;;;627318;23;1351;-64
2022/10/20 06:40:44;;;;;;;15.50;11.85;;;;;;;;;;626860;23;1272;-64
2022/10/20 06:41:53;;;;;;;10.75;6.43;;;;;;;;;;630744;23;931;-64
2022/10/20 06:43:01;;;;;;;8.40;6.53;;;;;;;;;;630345;23;1979;-64
2022/10/20 06:44:09;;;;;;;8.27;5.80;;;;;;;;;;627256;23;1437;-64
2022/10/20 06:45:17;;;;;;;8.57;6.10;;;;;;;;;;627134;23;894;-64
2022/10/20 06:46:26;;;;;;;10.25;5.63;;;;;;;;;;627045;23;1721;-64
2022/10/20 06:47:34;;;;;;;8.85;5.80;;;;;;;;;;627522;23;1488;-64
2022/10/20 06:48:42;;;;;;;8.65;5.90;;;;;;;;;;626650;23;1410;-64
2022/10/20 06:49:57;;;;;;;9.68;6.10;;;;;;;;;;627906;23;1350;-65
2022/10/20 06:51:06;;;;;;;8.02;5.88;;;;;;;;;;627709;23;1897;-64
2022/10/20 06:52:14;;;;;;;11.48;5.93;;;;;;;;;;627336;23;1228;-64
2022/10/20 06:53:22;;;;;;;10.35;6.28;;;;;;;;;;627315;23;1221;-64
2022/10/20 06:54:30;;;;;;;10.52;6.15;;;;;;;;;;627518;23;1094;-64
2022/10/20 06:55:38;;;;;;;11.02;6.45;;;;;;;;;;627694;23;1359;-64
2022/10/20 06:56:47;;;;;;;9.90;6.50;;;;;;;;;;626815;23;1440;-64
2022/10/20 06:57:55;;;;;;;8.90;6.30;;;;;;;;;;627519;23;1435;-64
2022/10/20 06:59:02;;;;;;;8.32;5.85;;;;;;;;;;626980;23;915;-63
2022/10/20 07:00:10;;;;;;;10.88;5.63;;;;;;;;;;630736;23;1050;-64
2022/10/20 07:01:28;;;;;;;8.48;5.80;;;;;;;;;;633316;23;1255;-64
2022/10/20 07:02:37;;;;;;;8.65;5.80;;;;;;;;;;629850;23;1391;-64
2022/10/20 07:03:46;;;;;;;8.93;5.88;;;;;;;;;;627442;23;1297;-64
2022/10/20 07:04:58;;;;;;;8.27;5.78;;;;;;;;;;625633;23;1285;-65
2022/10/20 07:06:06;;;;;;;8.30;5.93;;;;;;;;;;627502;23;1589;-64
2022/10/20 07:07:16;;;;;;;8.93;5.78;;;;;;;;;;628146;23;1240;-64
2022/10/20 07:08:25;;;;;;;8.00;5.88;;;;;;;;;;627308;23;1362;-64
2022/10/20 07:09:33;;;;;;;9.10;5.68;;;;;;;;;;627745;23;1708;-64
2022/10/20 07:10:41;;;;;;;7.63;5.55;;;;;;;;;;627369;23;1333;-63
2022/10/20 07:11:56;;;;;;;8.77;5.90;;;;;;;;;;626995;23;958;-63
2022/10/20 07:13:04;;;;;;;9.20;5.75;;;;;;;;;;627103;23;1454;-64
2022/10/20 07:14:12;;;;;;;8.07;5.82;;;;;;;;;;627535;23;1491;-64
2022/10/20 07:15:20;;;;;;;9.38;5.53;;;;;;;;;;630777;23;835;-65
2022/10/20 07:16:29;;;;;;;7.85;5.97;;;;;;;;;;630573;23;1134;-65